Time;durP1;ratioP1;P1;durP2;ratioP2;P2;SDS_P1;SDS_P2;PMS_P1;PMS_P2;Temp;Humidity;BMP_temperature;BMP_pressure;BME280_temperature;BME280_humidity;BME280_pressure;Samples;Min_cycle;Max_cycle;Signal;HPM_P1;HPM_P2
2023/10/06 00:00:55;;;;;;;5.50;2.83;;;15.20;73.70;;;;;;5055004;28;20452;-65
2023/10/06 00:03:21;;;;;;;5.97;3.07;;;15.20;73.70;;;;;;5052155;28;20462;-66
2023/10/06 00:05:49;;;;;;;3.87;3.00;;;15.10;73.70;;;;;;5036965;28;20531;-66
2023/10/06 00:08:17;;;;;;;6.83;3.03;;;15.10;74.40;;;;;;5054975;28;20467;-66
2023/10/06 00:10:51;;;;;;;4.27;3.07;;;15.10;73.70;;;;;;5019699;28;20444;-66
2023/10/06 00:13:23;;;;;;;4.47;2.77;;;15.00;73.40;;;;;;5053658;28;20498;-65
2023/10/06 00:15:51;;;;;;;4.30;2.80;;;15.00;73.10;;;;;;5054664;28;20486;-66
2023/10/06 00:18:20;;;;;;;4.30;2.90;;;15.00;73.10;;;;;;5054764;28;20479;-65
2023/10/06 00:20:49;;;;;;;3.83;3.00;;;15.00;73.30;;;;;;5054562;28;20487;-65
2023/10/06 00:23:21;;;;;;;3.77;2.73;;;14.90;73.10;;;;;;5054267;28;20441;-65
2023/10/06 00:25:52;;;;;;;4.23;3.20;;;14.90;73.10;;;;;;5054142;28;20453;-66
2023/10/06 00:28:21;;;;;;;3.87;2.93;;;14.90;73.30;;;;;;5036747;28;20441;-66
2023/10/06 00:30:55;;;;;;;3.43;2.70;;;14.90;73.30;;;;;;5034464;28;20972;-67
2023/10/06 00:33:26;;;;;;;5.23;2.73;;;14.90;73.20;;;;;;5050297;28;20444;-66
2023/10/06 00:35:52;;;;;;;3.90;2.87;;;14.80;73.20;;;;;;5054333;28;20543;-66
2023/10/06 00:38:19;;;;;;;4.77;3.30;;;14.80;73.30;;;;;;5053775;28;20448;-66
2023/10/06 00:40:51;;;;;;;5.10;2.83;;;14.70;73.20;;;;;;5054137;28;20538;-67
2023/10/06 00:43:34;;;;;;;3.43;2.93;;;14.70;73.10;;;;;;5053821;28;20472;-66
2023/10/06 00:46:06;;;;;;;3.50;2.80;;;14.70;73.20;;;;;;5054279;28;20480;-66
2023/10/06 00:48:34;;;;;;;4.47;2.77;;;14.70;73.10;;;;;;5053583;28;20480;-65
2023/10/06 00:51:04;;;;;;;3.57;2.70;;;14.70;73.00;;;;;;5054036;28;20452;-66
2023/10/06 00:53:32;;;;;;;4.20;2.97;;;14.70;73.00;;;;;;5052652;28;20454;-66
2023/10/06 00:56:04;;;;;;;6.27;3.40;;;14.60;72.90;;;;;;5053364;28;20468;-66
2023/10/06 00:58:34;;;;;;;4.57;2.80;;;14.60;73.10;;;;;;5053394;28;20484;-65
2023/10/06 01:01:05;;;;;;;6.13;2.90;;;14.60;73.10;;;;;;5053545;28;20476;-66
2023/10/06 01:03:38;;;;;;;4.20;3.03;;;14.60;73.30;;;;;;5039890;28;20866;-66
2023/10/06 01:06:08;;;;;;;3.57;3.27;;;14.60;73.20;;;;;;5053299;28;20575;-65
2023/10/06 01:08:35;;;;;;;4.23;2.90;;;14.50;73.00;;;;;;5052970;28;20525;-66
2023/10/06 01:11:11;;;;;;;4.37;2.77;;;14.50;73.10;;;;;;5050736;28;20487;-65
2023/10/06 01:13:53;;;;;;;5.17;2.87;;;14.50;73.00;;;;;;5052791;28;20458;-66
2023/10/06 01:16:24;;;;;;;4.67;2.87;;;14.40;72.90;;;;;;5053207;28;20567;-66
2023/10/06 01:18:52;;;;;;;5.57;2.90;;;14.30;72.60;;;;;;5051425;28;20464;-66
2023/10/06 01:21:28;;;;;;;4.80;2.50;;;14.30;72.70;;;;;;5051864;28;20457;-66
2023/10/06 01:23:58;;;;;;;2.73;2.50;;;14.30;72.70;;;;;;5052496;28;20478;-66
2023/10/06 01:26:27;;;;;;;4.57;2.70;;;14.30;72.80;;;;;;5053128;28;20482;-65
2023/10/06 01:28:54;;;;;;;4.37;2.90;;;14.30;72.90;;;;;;5052380;28;20816;-66
2023/10/06 01:31:20;;;;;;;4.03;2.80;;;14.20;72.90;;;;;;5052774;28;20468;-65
2023/10/06 01:33:47;;;;;;;3.67;2.70;;;14.20;72.80;;;;;;5052424;28;20491;-66
2023/10/06 01:36:15;;;;;;;3.43;3.00;;;14.20;73.10;;;;;;5052573;28;20449;-65
2023/10/06 01:38:43;;;;;;;3.53;2.77;;;14.20;73.30;;;;;;5053450;28;20976;-65
2023/10/06 01:41:12;;;;;;;3.10;2.70;;;14.20;73.20;;;;;;5052873;28;20484;-65
2023/10/06 01:43:39;;;;;;;4.83;2.93;;;14.20;73.10;;;;;;5051935;28;20455;-66
2023/10/06 01:46:13;;;;;;;7.17;3.43;;;14.20;73.00;;;;;;5053410;28;20444;-66
2023/10/06 01:48:40;;;;;;;5.23;2.90;;;14.20;73.20;;;;;;5052723;28;20456;-66
2023/10/06 01:51:11;;;;;;;4.90;2.90;;;14.20;73.10;;;;;;5052618;28;20447;-66
2023/10/06 01:53:40;;;;;;;3.20;2.90;;;14.20;73.10;;;;;;5044723;28;20880;-66
2023/10/06 01:56:08;;;;;;;5.07;3.33;;;14.20;73.00;;;;;;5052558;28;20486;-65
2023/10/06 01:58:37;;;;;;;4.33;2.97;;;14.20;72.90;;;;;;5052906;28;21008;-67
2023/10/06 02:01:07;;;;;;;4.53;2.90;;;14.20;72.90;;;;;;5052692;28;20464;-67
2023/10/06 02:03:38;;;;;;;4.27;2.80;;;14.10;72.80;;;;;;5052663;28;20942;-66
2023/10/06 02:06:12;;;;;;;3.90;2.50;;;14.10;72.80;;;;;;5052228;28;20472;-66
2023/10/06 02:08:40;;;;;;;4.30;3.03;;;14.00;72.70;;;;;;5052640;28;20448;-64
2023/10/06 02:11:09;;;;;;;4.47;2.57;;;14.00;72.90;;;;;;5052591;28;20831;-66
2023/10/06 02:13:38;;;;;;;5.97;3.10;;;14.00;72.90;;;;;;5052407;28;20534;-66
2023/10/06 02:16:06;;;;;;;3.03;2.33;;;14.00;73.00;;;;;;5052391;28;20458;-67
2023/10/06 02:18:36;;;;;;;3.43;2.37;;;14.00;73.00;;;;;;5052294;28;20510;-66
2023/10/06 02:21:10;;;;;;;4.30;2.50;;;14.00;72.80;;;;;;5049744;28;20456;-66
2023/10/06 02:23:40;;;;;;;2.40;2.20;;;13.90;72.60;;;;;;5048354;28;20530;-66
2023/10/06 02:26:09;;;;;;;3.30;2.53;;;13.90;72.60;;;;;;5052289;28;20850;-66
2023/10/06 02:28:43;;;;;;;3.10;2.63;;;13.90;72.80;;;;;;5051895;28;20484;-66
2023/10/06 02:31:10;;;;;;;3.93;2.60;;;13.90;73.00;;;;;;5051890;28;20468;-66
2023/10/06 02:33:39;;;;;;;5.47;3.00;;;13.80;72.90;;;;;;5052093;28;20579;-66
2023/10/06 02:36:16;;;;;;;4.20;3.10;;;13.80;73.00;;;;;;5051708;28;21059;-66
2023/10/06 02:38:46;;;;;;;5.07;3.23;;;13.80;73.00;;;;;;5052084;28;20546;-66
2023/10/06 02:41:19;;;;;;;4.17;3.20;;;13.80;73.00;;;;;;5052187;28;20531;-66
2023/10/06 02:43:49;;;;;;;4.63;2.73;;;13.80;73.00;;;;;;5051781;28;20876;-66
2023/10/06 02:46:16;;;;;;;5.60;3.40;;;13.70;72.90;;;;;;5055181;28;20583;-65
2023/10/06 02:48:49;;;;;;;6.20;3.30;;;13.70;72.80;;;;;;5068961;28;20459;-67
2023/10/06 02:51:28;;;;;;;3.83;2.90;;;13.70;72.70;;;;;;5065771;28;20495;-66
2023/10/06 02:54:09;;;;;;;4.83;3.40;;;13.70;72.60;;;;;;5056522;28;20516;-66
2023/10/06 02:56:36;;;;;;;6.00;3.60;;;13.60;73.30;;;;;;5066836;28;20486;-66
2023/10/06 02:59:20;;;;;;;4.20;3.37;;;13.60;72.50;;;;;;5069983;28;20456;-66
2023/10/06 03:01:51;;;;;;;5.23;3.50;;;13.60;72.30;;;;;;5070399;28;20475;-66
2023/10/06 03:04:18;;;;;;;6.43;3.23;;;13.60;72.20;;;;;;5070199;28;20462;-66
2023/10/06 03:06:52;;;;;;;3.80;2.80;;;13.60;72.30;;;;;;5061369;28;20535;-66
2023/10/06 03:09:19;;;;;;;3.73;3.07;;;13.50;72.10;;;;;;5036113;28;20993;-66
2023/10/06 03:11:49;;;;;;;4.80;3.47;;;13.50;72.10;;;;;;5051817;28;20441;-66
2023/10/06 03:14:24;;;;;;;4.47;3.47;;;13.50;72.20;;;;;;5051645;28;20487;-66
2023/10/06 03:16:52;;;;;;;3.50;3.10;;;13.50;72.20;;;;;;5051446;28;20466;-66
2023/10/06 03:19:24;;;;;;;5.70;2.90;;;13.50;72.10;;;;;;5051032;28;20514;-65
2023/10/06 03:21:55;;;;;;;3.90;2.90;;;13.40;72.20;;;;;;5047032;28;20502;-66
2023/10/06 03:24:31;;;;;;;4.30;3.07;;;13.40;72.40;;;;;;5051544;28;20518;-66
2023/10/06 03:26:59;;;;;;;4.83;3.00;;;13.40;72.60;;;;;;5051381;28;20546;-66
2023/10/06 03:29:46;;;;;;;4.07;3.10;;;13.40;72.70;;;;;;5051355;28;20460;-66
2023/10/06 03:32:20;;;;;;;3.37;2.77;;;13.30;72.50;;;;;;5043398;28;20864;-66
2023/10/06 03:34:47;;;;;;;3.20;2.67;;;13.30;72.30;;;;;;5051186;28;20455;-66
2023/10/06 03:37:16;;;;;;;3.40;2.40;;;13.30;72.10;;;;;;5051249;28;20450;-64
2023/10/06 03:39:50;;;;;;;3.77;2.50;;;13.30;71.90;;;;;;5051406;28;20821;-66
2023/10/06 03:42:20;;;;;;;3.57;2.50;;;13.30;71.70;;;;;;5051105;28;22227;-66
2023/10/06 03:45:04;;;;;;;3.83;2.60;;;13.20;71.70;;;;;;5051471;28;20452;-66
2023/10/06 03:47:31;;;;;;;5.63;3.07;;;13.20;71.70;;;;;;5050777;28;20495;-66
2023/10/06 03:49:58;;;;;;;4.17;2.73;;;13.20;71.70;;;;;;5046871;28;20441;-66
2023/10/06 03:52:25;;;;;;;4.87;2.93;;;13.20;72.00;;;;;;5031182;28;20485;-65
2023/10/06 03:54:56;;;;;;;3.83;2.40;;;13.20;72.20;;;;;;5050435;28;20462;-66
2023/10/06 03:57:23;;;;;;;3.40;2.33;;;13.10;71.90;;;;;;5069523;28;20546;-66
2023/10/06 03:59:52;;;;;;;4.67;2.80;;;13.20;72.00;;;;;;5054502;28;20551;-65
2023/10/06 04:02:19;;;;;;;4.40;2.90;;;13.10;71.90;;;;;;5054334;28;20448;-66
2023/10/06 04:04:49;;;;;;;3.27;2.60;;;13.10;72.70;;;;;;5054859;28;20955;-66
2023/10/06 04:07:16;;;;;;;4.03;2.80;;;13.10;72.10;;;;;;5055185;28;20444;-65
2023/10/06 04:09:49;;;;;;;2.67;2.40;;;13.10;72.20;;;;;;5054771;28;20551;-66
2023/10/06 04:12:16;;;;;;;3.97;2.50;;;13.10;73.00;;;;;;5054734;28;20448;-65
2023/10/06 04:14:42;;;;;;;4.30;2.37;;;13.00;72.10;;;;;;5053550;28;20480;-66
2023/10/06 04:17:12;;;;;;;3.23;2.40;;;13.00;72.00;;;;;;5054489;28;20444;-65
2023/10/06 04:19:39;;;;;;;4.67;2.63;;;13.00;71.80;;;;;;5053835;28;20514;-66
2023/10/06 04:22:07;;;;;;;4.47;3.03;;;13.00;72.00;;;;;;5047546;28;20451;-66
2023/10/06 04:24:35;;;;;;;6.13;3.00;;;12.90;72.60;;;;;;5054459;28;20460;-67
2023/10/06 04:27:02;;;;;;;5.27;3.30;;;12.90;73.80;;;;;;5054370;28;20816;-66
2023/10/06 04:29:34;;;;;;;5.00;3.23;;;12.90;73.50;;;;;;5054089;28;20456;-66
2023/10/06 04:32:01;;;;;;;3.87;2.93;;;12.90;73.20;;;;;;5053857;28;20498;-66
2023/10/06 04:34:35;;;;;;;4.20;3.10;;;12.80;72.80;;;;;;5054637;28;20483;-67
2023/10/06 04:37:03;;;;;;;5.90;3.13;;;12.80;72.80;;;;;;5054009;28;20562;-66
2023/10/06 04:39:30;;;;;;;3.47;2.80;;;12.80;73.00;;;;;;5054229;28;20535;-66
2023/10/06 04:41:59;;;;;;;4.20;3.20;;;12.80;72.80;;;;;;5053700;28;20472;-65
2023/10/06 04:44:26;;;;;;;3.67;2.87;;;12.90;73.00;;;;;;5054248;28;20452;-65
2023/10/06 04:46:52;;;;;;;3.93;2.83;;;12.90;72.90;;;;;;5053844;28;20970;-65
2023/10/06 04:49:19;;;;;;;8.03;3.90;;;12.90;72.90;;;;;;5053869;28;20456;-65
2023/10/06 04:51:48;;;;;;;10.60;4.60;;;12.80;73.80;;;;;;5053553;28;20933;-65
2023/10/06 04:54:15;;;;;;;5.03;3.43;;;12.90;74.90;;;;;;5053641;28;20580;-65
2023/10/06 04:56:42;;;;;;;5.57;2.83;;;12.90;74.00;;;;;;5053844;28;20470;-65
2023/10/06 04:59:11;;;;;;;6.47;3.50;;;12.90;72.90;;;;;;5052591;28;20476;-65
2023/10/06 05:01:38;;;;;;;8.20;3.40;;;12.80;72.80;;;;;;5053454;28;20452;-65
2023/10/06 05:04:08;;;;;;;5.60;3.20;;;12.80;73.20;;;;;;5053878;28;20448;-65
2023/10/06 05:06:35;;;;;;;3.40;2.90;;;12.70;73.80;;;;;;5053779;28;20452;-64
2023/10/06 05:09:06;;;;;;;3.63;2.77;;;12.80;73.70;;;;;;5052317;28;20487;-65
2023/10/06 05:11:32;;;;;;;3.93;2.90;;;12.80;73.40;;;;;;5053243;28;20541;-64
2023/10/06 05:14:01;;;;;;;4.10;2.93;;;12.80;73.30;;;;;;5052849;28;20488;-65
2023/10/06 05:16:28;;;;;;;3.83;3.17;;;12.80;73.20;;;;;;5052548;28;20484;-66
2023/10/06 05:18:55;;;;;;;3.27;2.53;;;12.80;73.20;;;;;;5053480;28;21031;-65
2023/10/06 05:21:21;;;;;;;4.53;2.70;;;12.80;73.40;;;;;;5043286;28;20477;-65
2023/10/06 05:23:48;;;;;;;3.73;3.23;;;12.80;73.50;;;;;;5041789;28;20848;-65
2023/10/06 05:26:19;;;;;;;3.50;2.73;;;12.90;73.70;;;;;;5053174;28;20463;-66
2023/10/06 05:28:47;;;;;;;4.33;3.10;;;12.90;73.80;;;;;;5052825;28;20967;-66
2023/10/06 05:31:14;;;;;;;3.67;3.07;;;12.90;73.80;;;;;;5053101;28;20495;-65
2023/10/06 05:33:41;;;;;;;4.93;3.20;;;12.90;73.80;;;;;;5053213;28;21002;-64
2023/10/06 05:36:11;;;;;;;4.23;3.50;;;12.90;73.30;;;;;;5052738;28;20456;-65
2023/10/06 05:38:38;;;;;;;4.37;3.10;;;13.00;73.90;;;;;;5035552;28;20949;-66
2023/10/06 05:41:08;;;;;;;6.37;3.33;;;13.00;73.90;;;;;;5053334;28;20890;-65
2023/10/06 05:43:36;;;;;;;4.00;3.10;;;13.00;73.90;;;;;;5048816;28;20483;-66
2023/10/06 05:46:05;;;;;;;4.10;2.90;;;13.00;74.10;;;;;;5052490;28;20448;-66
2023/10/06 05:48:34;;;;;;;4.33;2.90;;;13.00;74.10;;;;;;5052953;28;20459;-65
2023/10/06 05:51:04;;;;;;;3.77;2.80;;;13.00;74.30;;;;;;5053094;28;20455;-65
2023/10/06 05:53:38;;;;;;;2.87;2.67;;;13.10;74.10;;;;;;5018781;28;20964;-65
2023/10/06 05:56:07;;;;;;;5.67;2.77;;;13.20;74.20;;;;;;5050953;28;20495;-66
2023/10/06 05:58:34;;;;;;;4.73;3.03;;;13.10;74.00;;;;;;5052500;28;20452;-65
2023/10/06 06:01:06;;;;;;;3.70;2.90;;;13.20;74.20;;;;;;5052133;28;20571;-66
2023/10/06 06:03:33;;;;;;;3.23;2.80;;;13.20;74.20;;;;;;5051541;28;20529;-66
2023/10/06 06:06:07;;;;;;;3.77;2.77;;;13.20;74.20;;;;;;5052433;28;20480;-66
2023/10/06 06:08:34;;;;;;;5.67;3.20;;;13.30;74.60;;;;;;5053102;28;20458;-66
2023/10/06 06:11:01;;;;;;;4.80;2.87;;;13.30;74.90;;;;;;5052299;28;20456;-67
2023/10/06 06:13:28;;;;;;;3.87;3.10;;;13.30;75.10;;;;;;5050810;28;20496;-66
2023/10/06 06:15:55;;;;;;;4.77;3.10;;;13.40;75.40;;;;;;5052020;28;20452;-66
2023/10/06 06:18:27;;;;;;;4.70;3.20;;;13.50;76.10;;;;;;5051975;28;20527;-65
2023/10/06 06:20:54;;;;;;;4.00;3.40;;;13.50;76.10;;;;;;5052083;28;20450;-65
2023/10/06 06:23:21;;;;;;;4.70;3.37;;;13.50;76.30;;;;;;5052289;28;20468;-65
2023/10/06 06:25:50;;;;;;;13.23;5.63;;;13.60;76.40;;;;;;5052178;28;20855;-65
2023/10/06 06:28:17;;;;;;;12.70;6.37;;;13.60;76.90;;;;;;5051936;28;20472;-65
2023/10/06 06:30:47;;;;;;;14.23;5.87;;;13.60;77.10;;;;;;5052381;28;20460;-66
2023/10/06 06:33:17;;;;;;;12.03;5.67;;;13.70;77.30;;;;;;5047899;28;20497;-65
2023/10/06 06:35:46;;;;;;;7.97;5.00;;;13.70;77.00;;;;;;5043094;28;20513;-65
2023/10/06 06:38:13;;;;;;;6.33;4.40;;;13.70;76.70;;;;;;5051850;28;20976;-65
2023/10/06 06:40:40;;;;;;;14.13;4.37;;;13.80;76.70;;;;;;5051784;28;20457;-66
2023/10/06 06:43:09;;;;;;;9.10;4.90;;;13.80;76.80;;;;;;5051900;28;20448;-66
2023/10/06 06:45:39;;;;;;;5.77;4.33;;;13.80;76.50;;;;;;5051977;28;20507;-65
2023/10/06 06:48:10;;;;;;;8.83;4.30;;;13.80;77.00;;;;;;5052226;28;20464;-66
2023/10/06 06:50:37;;;;;;;8.93;5.03;;;13.80;77.20;;;;;;5047265;28;20463;-65
2023/10/06 06:53:05;;;;;;;7.47;4.57;;;13.90;77.40;;;;;;5051718;28;20455;-65
2023/10/06 06:55:32;;;;;;;6.43;4.37;;;14.00;77.50;;;;;;5051476;28;20468;-66
2023/10/06 06:58:05;;;;;;;8.70;5.03;;;14.00;77.30;;;;;;5051444;28;20476;-65
2023/10/06 07:00:35;;;;;;;7.50;4.57;;;14.00;77.50;;;;;;5051512;28;20457;-65
2023/10/06 07:03:02;;;;;;;6.80;4.90;;;14.10;77.90;;;;;;5051461;28;20874;-65
2023/10/06 07:05:30;;;;;;;8.13;4.73;;;14.10;78.00;;;;;;5051737;28;20464;-65
2023/10/06 07:07:59;;;;;;;7.87;5.00;;;14.10;78.00;;;;;;5052210;28;20825;-65
2023/10/06 07:10:29;;;;;;;8.53;4.80;;;14.10;78.40;;;;;;5051410;28;20547;-66
2023/10/06 07:12:58;;;;;;;9.57;5.47;;;14.10;78.70;;;;;;5051062;28;20494;-65
2023/10/06 07:15:29;;;;;;;6.80;5.00;;;14.10;78.80;;;;;;5047291;28;20534;-65
2023/10/06 07:17:57;;;;;;;9.90;5.63;;;14.10;78.60;;;;;;5051579;28;20463;-65
2023/10/06 07:20:27;;;;;;;9.20;5.40;;;14.30;78.80;;;;;;5048886;28;20491;-65
2023/10/06 07:22:55;;;;;;;6.83;4.93;;;14.30;78.70;;;;;;5031272;28;20453;-66
2023/10/06 07:25:26;;;;;;;9.30;5.20;;;14.50;78.60;;;;;;5013088;28;20477;-65
2023/10/06 07:27:57;;;;;;;8.63;5.33;;;14.50;78.30;;;;;;5031789;28;20445;-65
2023/10/06 07:30:25;;;;;;;8.10;5.17;;;14.70;78.10;;;;;;5041376;28;21128;-65
2023/10/06 07:32:54;;;;;;;7.40;5.03;;;14.70;77.40;;;;;;5052701;28;20451;-65
2023/10/06 07:35:26;;;;;;;8.97;5.13;;;14.80;77.50;;;;;;5055184;28;20483;-65
2023/10/06 07:37:53;;;;;;;7.70;5.40;;;14.90;77.50;;;;;;5055188;28;20514;-65
2023/10/06 07:40:21;;;;;;;8.83;5.73;;;15.00;77.60;;;;;;5055306;28;21004;-65
2023/10/06 07:42:49;;;;;;;9.20;4.97;;;15.10;77.60;;;;;;5054134;28;20903;-65
2023/10/06 07:45:19;;;;;;;7.07;4.77;;;15.20;76.90;;;;;;5055272;28;20447;-65
2023/10/06 07:47:46;;;;;;;7.47;5.13;;;15.40;76.80;;;;;;5055208;28;20480;-65
2023/10/06 07:50:15;;;;;;;6.97;4.57;;;15.40;76.30;;;;;;5055288;28;20444;-65
2023/10/06 07:52:42;;;;;;;6.37;4.70;;;15.50;77.10;;;;;;5055021;28;20882;-66
2023/10/06 07:55:11;;;;;;;7.03;4.70;;;15.50;76.00;;;;;;5055022;28;20579;-66
2023/10/06 07:57:41;;;;;;;7.23;4.93;;;15.50;76.00;;;;;;5054980;28;20455;-66
2023/10/06 08:00:09;;;;;;;7.87;5.20;;;15.50;75.80;;;;;;5055438;28;20449;-65
2023/10/06 08:02:39;;;;;;;9.67;5.50;;;15.60;75.80;;;;;;5053618;28;20453;-65
2023/10/06 08:05:11;;;;;;;7.57;5.50;;;15.70;76.00;;;;;;5035602;28;20876;-66
2023/10/06 08:07:38;;;;;;;10.57;5.70;;;15.80;75.90;;;;;;5034919;28;20494;-66
2023/10/06 08:10:07;;;;;;;6.90;5.20;;;15.90;76.10;;;;;;5035204;28;20972;-65
2023/10/06 08:12:34;;;;;;;9.77;5.17;;;16.00;75.50;;;;;;5051152;28;20456;-66
2023/10/06 08:15:09;;;;;;;7.97;5.17;;;16.20;75.50;;;;;;5055087;28;20483;-66
2023/10/06 08:17:37;;;;;;;8.40;5.40;;;16.30;75.30;;;;;;5055026;28;20479;-65
2023/10/06 08:20:06;;;;;;;6.80;4.70;;;16.50;75.10;;;;;;5054406;28;20440;-65
2023/10/06 08:22:33;;;;;;;8.53;5.20;;;16.50;74.30;;;;;;5054111;28;20468;-66
2023/10/06 08:25:00;;;;;;;6.07;4.43;;;16.60;74.50;;;;;;5054495;28;20451;-66
2023/10/06 08:27:27;;;;;;;7.53;5.43;;;16.80;74.60;;;;;;5054266;28;20482;-65
2023/10/06 08:29:54;;;;;;;8.23;5.30;;;16.80;74.00;;;;;;5054521;28;20444;-66
2023/10/06 08:32:21;;;;;;;8.63;5.63;;;16.90;73.00;;;;;;5053092;28;20460;-65
2023/10/06 08:34:51;;;;;;;8.13;5.23;;;16.90;73.10;;;;;;5053552;28;20680;-65
2023/10/06 08:37:19;;;;;;;8.37;5.00;;;17.00;73.10;;;;;;5053479;28;20464;-65
2023/10/06 08:39:46;;;;;;;8.00;5.30;;;17.10;72.80;;;;;;5054041;28;20992;-66
2023/10/06 08:42:15;;;;;;;8.60;5.30;;;17.20;72.80;;;;;;5053250;28;20449;-66
2023/10/06 08:44:42;;;;;;;9.67;5.27;;;17.20;72.20;;;;;;5054219;28;20492;-65
2023/10/06 08:47:10;;;;;;;6.70;4.27;;;17.20;72.50;;;;;;5054330;28;20839;-66
2023/10/06 08:49:39;;;;;;;8.10;4.93;;;17.40;72.60;;;;;;5054179;28;20484;-65
2023/10/06 08:52:09;;;;;;;9.93;6.20;;;17.60;72.50;;;;;;5053745;28;20814;-66
2023/10/06 08:54:37;;;;;;;7.20;5.23;;;17.70;71.70;;;;;;5053897;28;20483;-66
2023/10/06 08:57:04;;;;;;;7.10;4.60;;;17.80;71.50;;;;;;5054093;28;20530;-65
2023/10/06 08:59:32;;;;;;;8.60;5.00;;;18.00;71.60;;;;;;5053875;28;20573;-66
2023/10/06 09:02:00;;;;;;;6.47;4.57;;;18.10;70.80;;;;;;5053536;28;20483;-65
2023/10/06 09:04:37;;;;;;;7.10;4.80;;;18.20;71.30;;;;;;5052980;28;20276;-66
2023/10/06 09:07:09;;;;;;;8.30;5.00;;;18.40;71.10;;;;;;5053605;28;20567;-66
2023/10/06 09:09:37;;;;;;;7.57;4.63;;;18.60;70.20;;;;;;5047440;28;20602;-66
2023/10/06 09:12:04;;;;;;;7.63;4.53;;;18.60;69.70;;;;;;5041853;28;20566;-66
2023/10/06 09:14:31;;;;;;;8.50;5.20;;;18.70;69.10;;;;;;5053723;28;20226;-66
2023/10/06 09:17:01;;;;;;;7.83;4.60;;;18.60;68.80;;;;;;5052257;28;20286;-66
2023/10/06 09:19:46;;;;;;;7.30;4.70;;;18.70;69.30;;;;;;5053382;28;20261;-65
2023/10/06 09:22:15;;;;;;;5.77;4.30;;;18.80;69.00;;;;;;5042065;28;20201;-65
2023/10/06 09:24:42;;;;;;;9.67;4.97;;;19.00;69.20;;;;;;5053407;28;20428;-65
2023/10/06 09:27:25;;;;;;;9.67;5.03;;;19.10;69.50;;;;;;5053682;28;20233;-65
2023/10/06 09:30:00;;;;;;;7.57;5.20;;;19.10;67.70;;;;;;5053619;28;20299;-65
2023/10/06 09:32:26;;;;;;;7.80;4.70;;;19.20;67.70;;;;;;5052287;28;20216;-65
2023/10/06 09:34:57;;;;;;;7.43;4.90;;;19.30;67.30;;;;;;5052525;28;20464;-65
2023/10/06 09:37:25;;;;;;;7.10;4.57;;;19.30;67.40;;;;;;5053822;28;20210;-65
2023/10/06 09:40:14;;;;;;;7.50;4.20;;;19.30;67.30;;;;;;5051169;28;20658;-65
2023/10/06 09:42:48;;;;;;;8.57;4.73;;;19.40;66.40;;;;;;5052974;28;20212;-67
2023/10/06 09:45:20;;;;;;;9.70;4.40;;;19.50;66.50;;;;;;5034839;28;20206;-64
2023/10/06 09:47:56;;;;;;;7.93;4.77;;;19.60;66.60;;;;;;5053177;28;20630;-65
2023/10/06 09:50:26;;;;;;;9.03;5.13;;;19.80;66.60;;;;;;5052964;28;20201;-65
2023/10/06 09:52:55;;;;;;;6.00;4.10;;;19.80;65.50;;;;;;5048916;28;20230;-65
2023/10/06 09:55:22;;;;;;;7.47;4.30;;;19.90;65.60;;;;;;5047406;28;20228;-65
2023/10/06 09:57:50;;;;;;;6.53;4.63;;;20.00;65.50;;;;;;5053081;28;20233;-65
2023/10/06 10:00:18;;;;;;;6.90;4.90;;;20.10;65.40;;;;;;5052499;28;20204;-65
2023/10/06 10:02:47;;;;;;;7.13;3.90;;;20.20;64.70;;;;;;5052171;28;20226;-65
2023/10/06 10:05:18;;;;;;;8.03;4.63;;;20.40;65.10;;;;;;5052433;28;20232;-64
2023/10/06 10:07:46;;;;;;;7.37;4.30;;;20.60;64.80;;;;;;5053095;28;20209;-65
2023/10/06 10:10:14;;;;;;;5.87;4.07;;;20.80;64.70;;;;;;5052930;28;20213;-65
2023/10/06 10:13:19;;;;;;;7.50;3.97;;;21.00;64.00;;;;;;5051192;28;20616;-65
2023/10/06 10:16:01;;;;;;;8.73;4.27;;;21.10;63.30;;;;;;5042055;28;20233;-64
2023/10/06 10:18:35;;;;;;;8.33;4.73;;;21.30;64.20;;;;;;5052184;28;20201;-65
2023/10/06 10:21:04;;;;;;;8.13;4.57;;;21.60;63.50;;;;;;5044778;28;20206;-65
2023/10/06 10:23:32;;;;;;;7.23;4.67;;;21.70;61.40;;;;;;5045097;28;20229;-65
2023/10/06 10:26:15;;;;;;;10.60;4.73;;;21.80;61.30;;;;;;5032367;28;20212;-65
2023/10/06 10:28:43;;;;;;;6.10;3.67;;;22.00;60.80;;;;;;5041463;28;20216;-65
2023/10/06 10:31:16;;;;;;;7.03;3.97;;;22.20;62.10;;;;;;5052191;28;20249;-66
2023/10/06 10:33:46;;;;;;;7.77;3.83;;;22.50;61.30;;;;;;5052131;28;20212;-65
2023/10/06 10:36:23;;;;;;;6.37;3.43;;;22.60;60.60;;;;;;5052406;28;20247;-66
2023/10/06 10:39:09;;;;;;;5.73;3.83;;;22.80;59.80;;;;;;5052230;28;20213;-65
2023/10/06 10:41:38;;;;;;;5.67;3.90;;;23.00;58.80;;;;;;5052313;28;20216;-65
2023/10/06 10:44:07;;;;;;;5.03;3.70;;;23.00;59.00;;;;;;5051264;28;20229;-66
2023/10/06 10:46:41;;;;;;;6.37;4.03;;;22.90;58.30;;;;;;5051506;28;20228;-66
2023/10/06 10:49:11;;;;;;;7.83;3.83;;;22.70;57.90;;;;;;5052068;28;20201;-66
2023/10/06 10:51:54;;;;;;;7.77;4.33;;;22.90;59.20;;;;;;5051971;28;20210;-65
2023/10/06 10:54:22;;;;;;;8.03;4.27;;;23.10;58.20;;;;;;5050033;28;20591;-66
2023/10/06 10:56:53;;;;;;;5.73;3.93;;;23.20;56.00;;;;;;5051755;28;20678;-65
2023/10/06 10:59:21;;;;;;;8.50;4.27;;;23.20;56.70;;;;;;5047276;28;20275;-66
2023/10/06 11:01:51;;;;;;;6.73;4.20;;;23.30;57.30;;;;;;5032488;28;20210;-65
2023/10/06 11:04:25;;;;;;;7.40;4.40;;;23.30;57.30;;;;;;5051650;28;20205;-66
2023/10/06 11:06:55;;;;;;;6.20;3.77;;;23.40;56.40;;;;;;5051642;28;20198;-66
2023/10/06 11:09:28;;;;;;;5.73;3.77;;;23.50;56.60;;;;;;5033447;28;20210;-66
2023/10/06 11:11:58;;;;;;;7.67;3.80;;;23.60;55.80;;;;;;5051921;28;20206;-66
2023/10/06 11:14:27;;;;;;;7.00;4.13;;;23.80;56.40;;;;;;5051149;28;20666;-65
2023/10/06 11:17:01;;;;;;;5.03;3.80;;;24.00;55.60;;;;;;5051554;28;20237;-65
2023/10/06 11:19:28;;;;;;;6.73;3.80;;;24.20;56.40;;;;;;5051456;28;20928;-64
2023/10/06 11:21:55;;;;;;;5.53;3.53;;;24.40;54.80;;;;;;5051132;28;20236;-65
2023/10/06 11:24:26;;;;;;;7.80;4.00;;;24.50;53.90;;;;;;5051529;28;20284;-65
2023/10/06 11:26:53;;;;;;;6.07;3.80;;;24.60;54.20;;;;;;5051499;28;20205;-65
2023/10/06 11:29:34;;;;;;;6.77;3.53;;;24.80;53.40;;;;;;5051579;28;20240;-65
2023/10/06 11:32:01;;;;;;;4.67;3.00;;;24.60;50.40;;;;;;5051418;28;20213;-66
2023/10/06 11:34:28;;;;;;;5.73;3.50;;;24.60;53.10;;;;;;5051443;28;20241;-66
2023/10/06 11:36:57;;;;;;;5.27;3.20;;;24.90;53.70;;;;;;5051870;28;20213;-66
2023/10/06 11:39:29;;;;;;;7.87;3.60;;;25.10;53.20;;;;;;5051301;28;20229;-66
2023/10/06 11:42:32;;;;;;;6.07;3.57;;;25.40;52.70;;;;;;5050498;28;20209;-66
2023/10/06 11:45:05;;;;;;;5.47;3.60;;;25.70;50.70;;;;;;5031409;28;20248;-66
2023/10/06 11:47:42;;;;;;;6.07;3.77;;;25.70;51.50;;;;;;5050764;28;20652;-66
2023/10/06 11:50:22;;;;;;;6.70;3.73;;;25.70;49.80;;;;;;5051356;28;20268;-66
2023/10/06 11:52:51;;;;;;;5.40;3.37;;;25.80;50.40;;;;;;5050900;28;20817;-65
2023/10/06 11:55:34;;;;;;;7.33;3.60;;;25.60;49.80;;;;;;5051181;28;20320;-66
2023/10/06 11:58:04;;;;;;;4.20;3.43;;;25.60;49.20;;;;;;5049644;28;20205;-65
2023/10/06 12:00:39;;;;;;;5.83;3.43;;;25.70;50.10;;;;;;5051455;28;20209;-66
2023/10/06 12:03:08;;;;;;;4.23;3.17;;;25.80;50.60;;;;;;5048782;28;20672;-65
2023/10/06 12:05:35;;;;;;;5.47;3.30;;;25.90;49.80;;;;;;5051640;28;20202;-66
2023/10/06 12:08:04;;;;;;;4.33;3.47;;;26.20;49.60;;;;;;5051273;28;20627;-66
2023/10/06 12:10:33;;;;;;;4.17;3.23;;;26.50;48.80;;;;;;5051151;28;20584;-66
2023/10/06 12:13:04;;;;;;;5.50;3.50;;;26.70;47.40;;;;;;5050831;28;20230;-66
2023/10/06 12:15:31;;;;;;;5.60;3.77;;;26.80;47.30;;;;;;5051108;28;20232;-66
2023/10/06 12:18:00;;;;;;;5.57;3.80;;;26.80;47.30;;;;;;5052056;28;20682;-66
2023/10/06 12:20:27;;;;;;;7.00;3.77;;;26.70;47.20;;;;;;5054666;28;20203;-66
2023/10/06 12:22:54;;;;;;;5.53;3.50;;;26.70;48.50;;;;;;5054063;28;20213;-66
2023/10/06 12:25:25;;;;;;;6.07;3.30;;;26.80;48.20;;;;;;5054473;28;20285;-66
2023/10/06 12:27:52;;;;;;;7.93;4.00;;;26.90;47.20;;;;;;5054528;28;20296;-65
2023/10/06 12:30:21;;;;;;;4.87;2.87;;;26.80;44.10;;;;;;5054328;28;20273;-66
2023/10/06 12:32:48;;;;;;;3.57;3.10;;;26.70;44.60;;;;;;5053669;28;20208;-66
2023/10/06 12:35:19;;;;;;;4.73;3.43;;;26.90;44.40;;;;;;5054319;28;20690;-66
2023/10/06 12:37:47;;;;;;;4.97;3.20;;;26.90;43.30;;;;;;5054405;28;20676;-65
2023/10/06 12:40:15;;;;;;;5.40;3.67;;;26.80;44.00;;;;;;5054686;28;20259;-66
2023/10/06 12:42:43;;;;;;;4.73;3.10;;;26.80;43.40;;;;;;5053953;28;20212;-66
2023/10/06 12:45:17;;;;;;;6.60;4.00;;;26.90;43.10;;;;;;5054155;28;20205;-66
2023/10/06 12:47:46;;;;;;;6.97;3.70;;;26.90;43.10;;;;;;5053804;28;20277;-65
2023/10/06 12:50:16;;;;;;;4.93;3.40;;;26.90;42.90;;;;;;5054086;28;20210;-68
2023/10/06 12:52:49;;;;;;;4.80;2.80;;;27.10;43.00;;;;;;5049943;28;20591;-66
2023/10/06 12:55:21;;;;;;;5.73;3.60;;;27.30;42.80;;;;;;5054128;28;20280;-65
2023/10/06 12:57:48;;;;;;;5.33;3.40;;;27.50;42.30;;;;;;5053460;28;20240;-66
2023/10/06 13:00:15;;;;;;;4.53;3.03;;;27.70;42.20;;;;;;5041044;28;20356;-66